sensor_id;sensor_type;location;lat;lon;timestamp;temperature;humidity
67502;SHT30;54349;52.528;19.760;2023-10-09T00:01:06;24.96;44.68
67502;SHT30;54349;52.528;19.760;2023-10-09T00:03:47;25.00;44.60
67502;SHT30;54349;52.528;19.760;2023-10-09T00:06:21;25.06;44.59
67502;SHT30;54349;52.528;19.760;2023-10-09T00:09:06;25.09;44.49
67502;SHT30;54349;52.528;19.760;2023-10-09T00:11:44;25.14;44.32
67502;SHT30;54349;52.528;19.760;2023-10-09T00:14:13;25.18;44.18
67502;SHT30;54349;52.528;19.760;2023-10-09T00:16:43;25.24;44.09
67502;SHT30;54349;52.528;19.760;2023-10-09T00:19:15;25.28;44.15
67502;SHT30;54349;52.528;19.760;2023-10-09T00:22:00;25.31;44.09
67502;SHT30;54349;52.528;19.760;2023-10-09T00:24:32;25.34;44.05
67502;SHT30;54349;52.528;19.760;2023-10-09T00:27:02;25.37;43.99
67502;SHT30;54349;52.528;19.760;2023-10-09T00:29:41;25.40;44.03
67502;SHT30;54349;52.528;19.760;2023-10-09T00:32:13;25.43;44.05
67502;SHT30;54349;52.528;19.760;2023-10-09T00:34:55;25.47;44.01
67502;SHT30;54349;52.528;19.760;2023-10-09T00:37:37;25.50;43.92
67502;SHT30;54349;52.528;19.760;2023-10-09T00:40:06;25.54;43.90
67502;SHT30;54349;52.528;19.760;2023-10-09T00:42:48;25.58;43.84
67502;SHT30;54349;52.528;19.760;2023-10-09T00:45:17;25.61;43.76
67502;SHT30;54349;52.528;19.760;2023-10-09T00:47:55;25.63;43.69
67502;SHT30;54349;52.528;19.760;2023-10-09T00:50:27;25.69;43.74
67502;SHT30;54349;52.528;19.760;2023-10-09T00:53:03;25.73;43.75
67502;SHT30;54349;52.528;19.760;2023-10-09T00:55:40;25.76;43.74
67502;SHT30;54349;52.528;19.760;2023-10-09T00:58:12;25.76;43.72
67502;SHT30;54349;52.528;19.760;2023-10-09T01:00:55;25.80;43.69
67502;SHT30;54349;52.528;19.760;2023-10-09T01:03:24;25.83;43.61
67502;SHT30;54349;52.528;19.760;2023-10-09T01:05:59;25.85;43.60
67502;SHT30;54349;52.528;19.760;2023-10-09T01:08:38;25.87;43.63
67502;SHT30;54349;52.528;19.760;2023-10-09T01:11:11;25.91;43.54
67502;SHT30;54349;52.528;19.760;2023-10-09T01:13:46;25.95;43.49
67502;SHT30;54349;52.528;19.760;2023-10-09T01:16:21;25.98;43.44
67502;SHT30;54349;52.528;19.760;2023-10-09T01:18:55;26.00;43.38
67502;SHT30;54349;52.528;19.760;2023-10-09T01:21:28;26.04;43.40
67502;SHT30;54349;52.528;19.760;2023-10-09T01:24:00;26.07;43.39
67502;SHT30;54349;52.528;19.760;2023-10-09T01:26:36;26.09;43.39
67502;SHT30;54349;52.528;19.760;2023-10-09T01:29:15;26.11;43.32
67502;SHT30;54349;52.528;19.760;2023-10-09T01:31:51;26.14;43.33
67502;SHT30;54349;52.528;19.760;2023-10-09T01:34:29;26.17;43.34
67502;SHT30;54349;52.528;19.760;2023-10-09T01:37:10;26.18;43.27
67502;SHT30;54349;52.528;19.760;2023-10-09T01:39:49;26.11;42.60
67502;SHT30;54349;52.528;19.760;2023-10-09T01:42:48;25.99;42.00
67502;SHT30;54349;52.528;19.760;2023-10-09T01:45:17;25.89;41.77
67502;SHT30;54349;52.528;19.760;2023-10-09T01:47:48;25.78;41.63
67502;SHT30;54349;52.528;19.760;2023-10-09T01:50:22;25.68;41.61
67502;SHT30;54349;52.528;19.760;2023-10-09T01:53:03;25.57;41.62
67502;SHT30;54349;52.528;19.760;2023-10-09T01:55:36;25.48;41.60
67502;SHT30;54349;52.528;19.760;2023-10-09T01:58:09;25.38;41.68
67502;SHT30;54349;52.528;19.760;2023-10-09T02:00:51;25.28;41.81
67502;SHT30;54349;52.528;19.760;2023-10-09T02:03:31;25.18;41.85
67502;SHT30;54349;52.528;19.760;2023-10-09T02:06:06;25.09;41.89
67502;SHT30;54349;52.528;19.760;2023-10-09T02:08:53;25.00;41.91
67502;SHT30;54349;52.528;19.760;2023-10-09T02:11:25;24.92;41.94
67502;SHT30;54349;52.528;19.760;2023-10-09T02:14:11;24.84;41.89
67502;SHT30;54349;52.528;19.760;2023-10-09T02:16:48;24.76;41.95
67502;SHT30;54349;52.528;19.760;2023-10-09T02:19:48;24.67;42.05
67502;SHT30;54349;52.528;19.760;2023-10-09T02:22:17;24.60;42.10
67502;SHT30;54349;52.528;19.760;2023-10-09T02:24:48;24.54;42.20
67502;SHT30;54349;52.528;19.760;2023-10-09T02:27:16;24.47;42.22
67502;SHT30;54349;52.528;19.760;2023-10-09T02:30:09;24.39;42.25
67502;SHT30;54349;52.528;19.760;2023-10-09T02:32:48;24.33;42.33
67502;SHT30;54349;52.528;19.760;2023-10-09T02:35:22;24.27;42.42
67502;SHT30;54349;52.528;19.760;2023-10-09T02:38:09;24.21;42.40
67502;SHT30;54349;52.528;19.760;2023-10-09T02:40:44;24.14;42.42
67502;SHT30;54349;52.528;19.760;2023-10-09T02:43:31;24.07;42.49
67502;SHT30;54349;52.528;19.760;2023-10-09T02:46:09;24.01;42.49
67502;SHT30;54349;52.528;19.760;2023-10-09T02:48:49;23.95;42.58
67502;SHT30;54349;52.528;19.760;2023-10-09T02:51:19;23.90;42.61
67502;SHT30;54349;52.528;19.760;2023-10-09T02:53:56;23.84;42.63
67502;SHT30;54349;52.528;19.760;2023-10-09T02:56:35;23.78;42.73
67502;SHT30;54349;52.528;19.760;2023-10-09T02:59:09;23.75;42.79
67502;SHT30;54349;52.528;19.760;2023-10-09T03:01:40;23.69;42.81
67502;SHT30;54349;52.528;19.760;2023-10-09T03:04:09;23.66;42.82
67502;SHT30;54349;52.528;19.760;2023-10-09T03:06:44;23.60;42.89
67502;SHT30;54349;52.528;19.760;2023-10-09T03:09:19;23.55;42.94
67502;SHT30;54349;52.528;19.760;2023-10-09T03:11:58;23.51;42.95
67502;SHT30;54349;52.528;19.760;2023-10-09T03:14:33;23.45;43.00
67502;SHT30;54349;52.528;19.760;2023-10-09T03:17:10;23.42;43.02
67502;SHT30;54349;52.528;19.760;2023-10-09T03:19:41;23.37;42.99
67502;SHT30;54349;52.528;19.760;2023-10-09T03:22:12;23.33;43.09
67502;SHT30;54349;52.528;19.760;2023-10-09T03:24:40;23.29;43.08
67502;SHT30;54349;52.528;19.760;2023-10-09T03:27:19;23.25;43.16
67502;SHT30;54349;52.528;19.760;2023-10-09T03:29:48;23.22;43.18
67502;SHT30;54349;52.528;19.760;2023-10-09T03:32:22;23.17;43.22
67502;SHT30;54349;52.528;19.760;2023-10-09T03:34:52;23.13;43.28
67502;SHT30;54349;52.528;19.760;2023-10-09T03:37:21;23.10;43.28
67502;SHT30;54349;52.528;19.760;2023-10-09T03:39:50;23.06;43.37
67502;SHT30;54349;52.528;19.760;2023-10-09T03:42:23;23.03;43.37
67502;SHT30;54349;52.528;19.760;2023-10-09T03:44:52;23.00;43.36
67502;SHT30;54349;52.528;19.760;2023-10-09T03:47:22;22.96;43.54
67502;SHT30;54349;52.528;19.760;2023-10-09T03:49:51;22.95;43.50
67502;SHT30;54349;52.528;19.760;2023-10-09T03:52:25;22.92;43.50
67502;SHT30;54349;52.528;19.760;2023-10-09T03:54:55;22.89;43.61
67502;SHT30;54349;52.528;19.760;2023-10-09T03:57:25;22.87;43.51
67502;SHT30;54349;52.528;19.760;2023-10-09T03:59:54;22.82;43.31
67502;SHT30;54349;52.528;19.760;2023-10-09T04:02:25;22.75;43.23
67502;SHT30;54349;52.528;19.760;2023-10-09T04:04:54;22.69;43.22
67502;SHT30;54349;52.528;19.760;2023-10-09T04:07:25;22.64;43.25
67502;SHT30;54349;52.528;19.760;2023-10-09T04:09:57;22.61;43.15
67502;SHT30;54349;52.528;19.760;2023-10-09T04:12:46;22.57;43.11
67502;SHT30;54349;52.528;19.760;2023-10-09T04:15:21;22.54;43.00
67502;SHT30;54349;52.528;19.760;2023-10-09T04:17:51;22.49;42.99
67502;SHT30;54349;52.528;19.760;2023-10-09T04:20:21;22.46;42.90
67502;SHT30;54349;52.528;19.760;2023-10-09T04:22:52;22.42;42.92
67502;SHT30;54349;52.528;19.760;2023-10-09T04:25:32;22.40;43.02
67502;SHT30;54349;52.528;19.760;2023-10-09T04:28:19;22.38;43.08
67502;SHT30;54349;52.528;19.760;2023-10-09T04:30:50;22.38;43.16
67502;SHT30;54349;52.528;19.760;2023-10-09T04:33:25;22.37;43.21
67502;SHT30;54349;52.528;19.760;2023-10-09T04:36:11;22.36;43.29
67502;SHT30;54349;52.528;19.760;2023-10-09T04:38:53;22.35;43.39
67502;SHT30;54349;52.528;19.760;2023-10-09T04:41:49;22.34;43.43
67502;SHT30;54349;52.528;19.760;2023-10-09T04:44:18;22.33;43.49
67502;SHT30;54349;52.528;19.760;2023-10-09T04:46:51;22.31;43.47
67502;SHT30;54349;52.528;19.760;2023-10-09T04:49:47;22.31;43.51
67502;SHT30;54349;52.528;19.760;2023-10-09T04:52:17;22.27;43.54
67502;SHT30;54349;52.528;19.760;2023-10-09T04:54:54;22.25;43.55
67502;SHT30;54349;52.528;19.760;2023-10-09T04:57:40;22.24;43.60
67502;SHT30;54349;52.528;19.760;2023-10-09T05:00:15;22.22;43.58
67502;SHT30;54349;52.528;19.760;2023-10-09T05:02:57;22.21;43.66
67502;SHT30;54349;52.528;19.760;2023-10-09T05:05:53;22.19;43.62
67502;SHT30;54349;52.528;19.760;2023-10-09T05:08:28;22.17;43.63
67502;SHT30;54349;52.528;19.760;2023-10-09T05:11:01;22.15;43.63
67502;SHT30;54349;52.528;19.760;2023-10-09T05:13:38;22.14;43.71
67502;SHT30;54349;52.528;19.760;2023-10-09T05:16:13;22.14;43.64
67502;SHT30;54349;52.528;19.760;2023-10-09T05:18:51;22.13;43.62
67502;SHT30;54349;52.528;19.760;2023-10-09T05:21:50;22.11;43.67
67502;SHT30;54349;52.528;19.760;2023-10-09T05:24:23;22.09;43.65
67502;SHT30;54349;52.528;19.760;2023-10-09T05:26:54;22.08;43.86
67502;SHT30;54349;52.528;19.760;2023-10-09T05:29:44;22.07;44.08
67502;SHT30;54349;52.528;19.760;2023-10-09T05:32:28;22.05;44.11
67502;SHT30;54349;52.528;19.760;2023-10-09T05:35:05;22.02;44.05
67502;SHT30;54349;52.528;19.760;2023-10-09T05:37:43;22.01;44.02
67502;SHT30;54349;52.528;19.760;2023-10-09T05:40:14;21.98;44.08
67502;SHT30;54349;52.528;19.760;2023-10-09T05:42:46;21.97;44.05
67502;SHT30;54349;52.528;19.760;2023-10-09T05:45:26;21.97;44.04
67502;SHT30;54349;52.528;19.760;2023-10-09T05:48:19;21.95;44.06
67502;SHT30;54349;52.528;19.760;2023-10-09T05:51:07;21.92;44.05
67502;SHT30;54349;52.528;19.760;2023-10-09T05:54:02;21.92;44.03
67502;SHT30;54349;52.528;19.760;2023-10-09T05:57:01;21.91;44.03
67502;SHT30;54349;52.528;19.760;2023-10-09T05:59:48;21.89;43.95
67502;SHT30;54349;52.528;19.760;2023-10-09T06:02:38;21.87;43.95
67502;SHT30;54349;52.528;19.760;2023-10-09T06:05:32;21.84;43.90
67502;SHT30;54349;52.528;19.760;2023-10-09T06:08:20;21.83;43.86
67502;SHT30;54349;52.528;19.760;2023-10-09T06:11:08;21.80;43.76
67502;SHT30;54349;52.528;19.760;2023-10-09T06:14:00;21.78;43.79
67502;SHT30;54349;52.528;19.760;2023-10-09T06:16:39;21.77;43.74
67502;SHT30;54349;52.528;19.760;2023-10-09T06:19:11;21.74;43.69
67502;SHT30;54349;52.528;19.760;2023-10-09T06:21:49;21.72;43.75
67502;SHT30;54349;52.528;19.760;2023-10-09T06:24:38;21.71;43.76
67502;SHT30;54349;52.528;19.760;2023-10-09T06:27:32;21.69;43.64
67502;SHT30;54349;52.528;19.760;2023-10-09T06:30:01;21.67;43.68
67502;SHT30;54349;52.528;19.760;2023-10-09T06:32:48;21.66;43.65
67502;SHT30;54349;52.528;19.760;2023-10-09T06:35:36;21.65;43.71
67502;SHT30;54349;52.528;19.760;2023-10-09T06:38:07;21.65;43.73
67502;SHT30;54349;52.528;19.760;2023-10-09T06:40:54;21.64;43.75
67502;SHT30;54349;52.528;19.760;2023-10-09T06:43:34;21.63;43.70
67502;SHT30;54349;52.528;19.760;2023-10-09T06:46:14;21.62;43.77
67502;SHT30;54349;52.528;19.760;2023-10-09T06:48:50;21.62;43.78
67502;SHT30;54349;52.528;19.760;2023-10-09T06:51:25;21.62;43.74
67502;SHT30;54349;52.528;19.760;2023-10-09T06:53:54;21.60;43.73
67502;SHT30;54349;52.528;19.760;2023-10-09T06:56:28;21.58;43.70
67502;SHT30;54349;52.528;19.760;2023-10-09T06:58:58;21.58;43.74
67502;SHT30;54349;52.528;19.760;2023-10-09T07:01:42;21.58;43.73
67502;SHT30;54349;52.528;19.760;2023-10-09T07:04:14;21.56;43.70
67502;SHT30;54349;52.528;19.760;2023-10-09T07:06:48;21.56;43.74
67502;SHT30;54349;52.528;19.760;2023-10-09T07:09:19;21.55;43.78
67502;SHT30;54349;52.528;19.760;2023-10-09T07:11:49;21.56;43.77
67502;SHT30;54349;52.528;19.760;2023-10-09T07:14:21;21.54;43.79
67502;SHT30;54349;52.528;19.760;2023-10-09T07:17:01;21.54;43.84
67502;SHT30;54349;52.528;19.760;2023-10-09T07:19:50;21.55;43.75
67502;SHT30;54349;52.528;19.760;2023-10-09T07:22:23;21.54;43.77
67502;SHT30;54349;52.528;19.760;2023-10-09T07:24:57;21.52;43.72
67502;SHT30;54349;52.528;19.760;2023-10-09T07:27:42;21.52;43.78
67502;SHT30;54349;52.528;19.760;2023-10-09T07:30:13;21.51;43.79
67502;SHT30;54349;52.528;19.760;2023-10-09T07:38:26;21.50;43.74
67502;SHT30;54349;52.528;19.760;2023-10-09T07:40:57;21.50;43.76
67502;SHT30;54349;52.528;19.760;2023-10-09T07:43:36;21.50;43.74
67502;SHT30;54349;52.528;19.760;2023-10-09T07:46:13;21.49;43.77
67502;SHT30;54349;52.528;19.760;2023-10-09T07:49:20;21.50;43.74
67502;SHT30;54349;52.528;19.760;2023-10-09T07:51:56;21.49;43.69
67502;SHT30;54349;52.528;19.760;2023-10-09T07:54:26;21.50;43.97
67502;SHT30;54349;52.528;19.760;2023-10-09T07:57:01;21.52;44.56
67502;SHT30;54349;52.528;19.760;2023-10-09T07:59:44;21.57;45.29
67502;SHT30;54349;52.528;19.760;2023-10-09T08:02:41;21.61;45.73
67502;SHT30;54349;52.528;19.760;2023-10-09T08:05:09;21.65;46.08
67502;SHT30;54349;52.528;19.760;2023-10-09T08:07:48;21.67;46.33
67502;SHT30;54349;52.528;19.760;2023-10-09T08:10:38;21.71;46.58
67502;SHT30;54349;52.528;19.760;2023-10-09T08:13:27;21.75;46.90
67502;SHT30;54349;52.528;19.760;2023-10-09T08:16:14;21.77;47.29
67502;SHT30;54349;52.528;19.760;2023-10-09T08:18:52;21.81;47.30
67502;SHT30;54349;52.528;19.760;2023-10-09T08:21:21;21.83;47.46
67502;SHT30;54349;52.528;19.760;2023-10-09T08:24:10;21.86;47.56
67502;SHT30;54349;52.528;19.760;2023-10-09T08:26:59;21.89;47.62
67502;SHT30;54349;52.528;19.760;2023-10-09T08:30:04;21.92;47.86
67502;SHT30;54349;52.528;19.760;2023-10-09T08:32:47;21.95;48.15
67502;SHT30;54349;52.528;19.760;2023-10-09T08:35:34;21.98;48.34
67502;SHT30;54349;52.528;19.760;2023-10-09T08:38:17;22.01;48.21
67502;SHT30;54349;52.528;19.760;2023-10-09T08:40:53;22.04;48.06
67502;SHT30;54349;52.528;19.760;2023-10-09T08:43:27;22.06;48.15
67502;SHT30;54349;52.528;19.760;2023-10-09T08:46:02;22.08;48.05
67502;SHT30;54349;52.528;19.760;2023-10-09T08:48:36;22.10;47.96
67502;SHT30;54349;52.528;19.760;2023-10-09T08:51:08;22.12;47.88
67502;SHT30;54349;52.528;19.760;2023-10-09T08:53:36;22.13;47.85
67502;SHT30;54349;52.528;19.760;2023-10-09T08:56:11;22.14;47.74
67502;SHT30;54349;52.528;19.760;2023-10-09T08:58:57;22.17;47.56
67502;SHT30;54349;52.528;19.760;2023-10-09T09:01:33;22.18;47.57
67502;SHT30;54349;52.528;19.760;2023-10-09T09:04:02;22.21;47.48
67502;SHT30;54349;52.528;19.760;2023-10-09T09:06:38;22.23;47.45
67502;SHT30;54349;52.528;19.760;2023-10-09T09:09:13;22.25;47.51
67502;SHT30;54349;52.528;19.760;2023-10-09T09:11:43;22.29;47.49
67502;SHT30;54349;52.528;19.760;2023-10-09T09:14:17;22.32;47.01
67502;SHT30;54349;52.528;19.760;2023-10-09T09:16:50;22.35;46.74
67502;SHT30;54349;52.528;19.760;2023-10-09T09:19:22;22.35;46.51
67502;SHT30;54349;52.528;19.760;2023-10-09T09:22:01;22.37;46.53
67502;SHT30;54349;52.528;19.760;2023-10-09T09:24:42;22.39;46.47
67502;SHT30;54349;52.528;19.760;2023-10-09T09:27:47;22.39;46.40
67502;SHT30;54349;52.528;19.760;2023-10-09T09:30:27;22.42;46.34
67502;SHT30;54349;52.528;19.760;2023-10-09T09:33:17;22.42;46.23
67502;SHT30;54349;52.528;19.760;2023-10-09T09:35:59;22.43;46.11
67502;SHT30;54349;52.528;19.760;2023-10-09T09:38:33;22.45;46.14
67502;SHT30;54349;52.528;19.760;2023-10-09T09:41:24;22.45;46.11
67502;SHT30;54349;52.528;19.760;2023-10-09T09:43:58;22.45;45.91
67502;SHT30;54349;52.528;19.760;2023-10-09T09:46:34;22.45;45.93
67502;SHT30;54349;52.528;19.760;2023-10-09T09:49:04;22.46;45.95
67502;SHT30;54349;52.528;19.760;2023-10-09T09:51:34;22.46;45.79
67502;SHT30;54349;52.528;19.760;2023-10-09T09:54:02;22.47;45.73
67502;SHT30;54349;52.528;19.760;2023-10-09T09:56:36;22.46;45.75
67502;SHT30;54349;52.528;19.760;2023-10-09T09:59:07;22.45;45.73
67502;SHT30;54349;52.528;19.760;2023-10-09T10:01:42;22.46;45.74
67502;SHT30;54349;52.528;19.760;2023-10-09T10:04:16;22.46;45.72
67502;SHT30;54349;52.528;19.760;2023-10-09T10:06:49;22.45;45.54
67502;SHT30;54349;52.528;19.760;2023-10-09T10:12:08;22.44;45.60
67502;SHT30;54349;52.528;19.760;2023-10-09T10:14:58;22.44;45.63
67502;SHT30;54349;52.528;19.760;2023-10-09T10:18:06;22.44;45.60
67502;SHT30;54349;52.528;19.760;2023-10-09T10:20:31;22.44;46.14
67502;SHT30;54349;52.528;19.760;2023-10-09T10:23:16;22.47;47.06
67502;SHT30;54349;52.528;19.760;2023-10-09T10:25:48;22.49;47.59
67502;SHT30;54349;52.528;19.760;2023-10-09T10:28:18;22.51;47.60
67502;SHT30;54349;52.528;19.760;2023-10-09T10:31:07;22.51;48.17
67502;SHT30;54349;52.528;19.760;2023-10-09T10:36:35;22.56;48.50
67502;SHT30;54349;52.528;19.760;2023-10-09T10:39:05;22.55;48.70
67502;SHT30;54349;52.528;19.760;2023-10-09T10:41:53;22.56;48.84
67502;SHT30;54349;52.528;19.760;2023-10-09T10:44:27;22.57;48.96
67502;SHT30;54349;52.528;19.760;2023-10-09T10:47:06;22.58;49.03
67502;SHT30;54349;52.528;19.760;2023-10-09T10:50:04;22.59;49.04
67502;SHT30;54349;52.528;19.760;2023-10-09T10:53:11;22.59;48.80
67502;SHT30;54349;52.528;19.760;2023-10-09T10:55:54;22.59;48.80
67502;SHT30;54349;52.528;19.760;2023-10-09T10:58:53;22.60;48.64
67502;SHT30;54349;52.528;19.760;2023-10-09T11:01:34;22.62;48.85
67502;SHT30;54349;52.528;19.760;2023-10-09T11:04:31;22.63;48.73
67502;SHT30;54349;52.528;19.760;2023-10-09T11:07:03;22.64;48.55
67502;SHT30;54349;52.528;19.760;2023-10-09T11:09:54;22.66;48.49
67502;SHT30;54349;52.528;19.760;2023-10-09T11:15:06;22.68;48.51
67502;SHT30;54349;52.528;19.760;2023-10-09T11:20:51;22.68;48.36
67502;SHT30;54349;52.528;19.760;2023-10-09T11:23:31;22.70;48.20
67502;SHT30;54349;52.528;19.760;2023-10-09T11:26:09;22.70;47.55
67502;SHT30;54349;52.528;19.760;2023-10-09T11:29:12;22.69;47.17
67502;SHT30;54349;52.528;19.760;2023-10-09T11:34:28;22.69;47.30
67502;SHT30;54349;52.528;19.760;2023-10-09T11:37:03;22.70;47.29
67502;SHT30;54349;52.528;19.760;2023-10-09T11:39:59;22.70;47.38
67502;SHT30;54349;52.528;19.760;2023-10-09T11:42:31;22.71;47.52
67502;SHT30;54349;52.528;19.760;2023-10-09T11:45:05;22.71;47.21
67502;SHT30;54349;52.528;19.760;2023-10-09T11:47:49;22.73;47.00
67502;SHT30;54349;52.528;19.760;2023-10-09T11:53:12;22.75;47.22
67502;SHT30;54349;52.528;19.760;2023-10-09T11:55:53;22.78;47.36
67502;SHT30;54349;52.528;19.760;2023-10-09T11:58:22;22.80;46.97
67502;SHT30;54349;52.528;19.760;2023-10-09T12:00:53;22.81;46.99
67502;SHT30;54349;52.528;19.760;2023-10-09T12:03:28;22.84;46.84
67502;SHT30;54349;52.528;19.760;2023-10-09T12:05:59;22.85;47.20
67502;SHT30;54349;52.528;19.760;2023-10-09T12:08:34;22.89;47.51
67502;SHT30;54349;52.528;19.760;2023-10-09T12:11:04;22.92;47.22
67502;SHT30;54349;52.528;19.760;2023-10-09T12:13:37;22.94;47.36
67502;SHT30;54349;52.528;19.760;2023-10-09T12:16:07;22.96;47.04
67502;SHT30;54349;52.528;19.760;2023-10-09T12:18:38;22.98;46.87
67502;SHT30;54349;52.528;19.760;2023-10-09T12:21:08;22.99;46.67
67502;SHT30;54349;52.528;19.760;2023-10-09T12:23:43;23.01;46.74
67502;SHT30;54349;52.528;19.760;2023-10-09T12:26:15;23.02;46.29
67502;SHT30;54349;52.528;19.760;2023-10-09T12:28:45;23.02;46.45
67502;SHT30;54349;52.528;19.760;2023-10-09T12:31:18;23.04;46.56
67502;SHT30;54349;52.528;19.760;2023-10-09T12:33:57;23.06;46.93
67502;SHT30;54349;52.528;19.760;2023-10-09T12:36:27;23.10;47.05
67502;SHT30;54349;52.528;19.760;2023-10-09T12:38:55;23.12;46.73
67502;SHT30;54349;52.528;19.760;2023-10-09T12:41:28;23.14;46.70
67502;SHT30;54349;52.528;19.760;2023-10-09T12:44:01;23.17;46.32
67502;SHT30;54349;52.528;19.760;2023-10-09T12:46:31;23.19;46.38
67502;SHT30;54349;52.528;19.760;2023-10-09T12:49:06;23.19;46.23
67502;SHT30;54349;52.528;19.760;2023-10-09T12:51:35;23.21;46.07
67502;SHT30;54349;52.528;19.760;2023-10-09T12:54:04;23.22;45.88
67502;SHT30;54349;52.528;19.760;2023-10-09T12:56:33;23.23;45.64
67502;SHT30;54349;52.528;19.760;2023-10-09T12:59:06;23.24;45.85
67502;SHT30;54349;52.528;19.760;2023-10-09T13:01:36;23.25;45.89
67502;SHT30;54349;52.528;19.760;2023-10-09T13:04:12;23.25;45.77
67502;SHT30;54349;52.528;19.760;2023-10-09T13:06:47;23.27;45.83
67502;SHT30;54349;52.528;19.760;2023-10-09T13:09:22;23.28;45.68
67502;SHT30;54349;52.528;19.760;2023-10-09T13:12:02;23.28;45.49
67502;SHT30;54349;52.528;19.760;2023-10-09T13:14:31;23.28;45.44
67502;SHT30;54349;52.528;19.760;2023-10-09T13:17:02;23.28;45.31
67502;SHT30;54349;52.528;19.760;2023-10-09T13:19:38;23.28;45.13
67502;SHT30;54349;52.528;19.760;2023-10-09T13:22:06;23.28;44.98
67502;SHT30;54349;52.528;19.760;2023-10-09T13:24:41;23.27;45.08
67502;SHT30;54349;52.528;19.760;2023-10-09T13:27:11;23.27;45.30
67502;SHT30;54349;52.528;19.760;2023-10-09T13:29:41;23.27;45.48
67502;SHT30;54349;52.528;19.760;2023-10-09T13:32:09;23.27;45.67
67502;SHT30;54349;52.528;19.760;2023-10-09T13:34:44;23.28;45.77
67502;SHT30;54349;52.528;19.760;2023-10-09T13:37:14;23.28;45.89
67502;SHT30;54349;52.528;19.760;2023-10-09T13:39:50;23.28;45.57
67502;SHT30;54349;52.528;19.760;2023-10-09T13:42:21;23.28;45.89
67502;SHT30;54349;52.528;19.760;2023-10-09T13:44:54;23.29;45.81
67502;SHT30;54349;52.528;19.760;2023-10-09T13:47:23;23.30;46.11
67502;SHT30;54349;52.528;19.760;2023-10-09T13:50:00;23.33;46.05
67502;SHT30;54349;52.528;19.760;2023-10-09T13:52:29;23.36;45.14
67502;SHT30;54349;52.528;19.760;2023-10-09T13:54:59;23.38;44.69
67502;SHT30;54349;52.528;19.760;2023-10-09T13:57:44;23.38;44.21
67502;SHT30;54349;52.528;19.760;2023-10-09T14:00:14;23.38;44.07
67502;SHT30;54349;52.528;19.760;2023-10-09T14:02:47;23.39;44.16
67502;SHT30;54349;52.528;19.760;2023-10-09T14:05:20;23.40;43.93
67502;SHT30;54349;52.528;19.760;2023-10-09T14:07:49;23.40;44.04
67502;SHT30;54349;52.528;19.760;2023-10-09T14:10:18;23.42;43.98
67502;SHT30;54349;52.528;19.760;2023-10-09T14:12:54;23.44;43.88
67502;SHT30;54349;52.528;19.760;2023-10-09T14:15:25;23.44;43.72
67502;SHT30;54349;52.528;19.760;2023-10-09T14:17:53;23.44;43.70
67502;SHT30;54349;52.528;19.760;2023-10-09T14:20:27;23.43;43.62
67502;SHT30;54349;52.528;19.760;2023-10-09T14:23:00;23.42;43.80
67502;SHT30;54349;52.528;19.760;2023-10-09T14:25:36;23.42;43.69
67502;SHT30;54349;52.528;19.760;2023-10-09T14:28:08;23.41;43.53
67502;SHT30;54349;52.528;19.760;2023-10-09T14:30:39;23.40;43.45
67502;SHT30;54349;52.528;19.760;2023-10-09T14:33:13;23.39;43.44
67502;SHT30;54349;52.528;19.760;2023-10-09T14:35:44;23.37;43.39
67502;SHT30;54349;52.528;19.760;2023-10-09T14:38:15;23.36;43.31
67502;SHT30;54349;52.528;19.760;2023-10-09T14:40:53;23.34;43.26
67502;SHT30;54349;52.528;19.760;2023-10-09T14:43:26;23.32;43.26
67502;SHT30;54349;52.528;19.760;2023-10-09T14:46:02;23.32;43.36
67502;SHT30;54349;52.528;19.760;2023-10-09T14:48:33;23.32;43.41
67502;SHT30;54349;52.528;19.760;2023-10-09T14:51:05;23.33;43.50
67502;SHT30;54349;52.528;19.760;2023-10-09T14:53:36;23.33;43.45
67502;SHT30;54349;52.528;19.760;2023-10-09T14:56:06;23.33;43.49
67502;SHT30;54349;52.528;19.760;2023-10-09T14:58:39;23.33;43.45
67502;SHT30;54349;52.528;19.760;2023-10-09T15:01:12;23.33;43.52
67502;SHT30;54349;52.528;19.760;2023-10-09T15:03:46;23.32;43.44
67502;SHT30;54349;52.528;19.760;2023-10-09T15:06:16;23.33;43.47
67502;SHT30;54349;52.528;19.760;2023-10-09T15:08:46;23.34;43.53
67502;SHT30;54349;52.528;19.760;2023-10-09T15:11:22;23.33;43.40
67502;SHT30;54349;52.528;19.760;2023-10-09T15:13:53;23.33;43.55
67502;SHT30;54349;52.528;19.760;2023-10-09T15:16:22;23.33;43.52
67502;SHT30;54349;52.528;19.760;2023-10-09T15:18:55;23.33;43.41
67502;SHT30;54349;52.528;19.760;2023-10-09T15:21:41;23.33;43.28
67502;SHT30;54349;52.528;19.760;2023-10-09T15:24:13;23.32;43.17
67502;SHT30;54349;52.528;19.760;2023-10-09T15:26:46;23.31;43.24
67502;SHT30;54349;52.528;19.760;2023-10-09T15:29:26;23.30;43.34
67502;SHT30;54349;52.528;19.760;2023-10-09T15:32:00;23.30;43.35
67502;SHT30;54349;52.528;19.760;2023-10-09T15:34:42;23.30;43.39
67502;SHT30;54349;52.528;19.760;2023-10-09T15:37:12;23.29;43.35
67502;SHT30;54349;52.528;19.760;2023-10-09T15:39:42;23.29;43.35
67502;SHT30;54349;52.528;19.760;2023-10-09T15:42:11;23.28;43.32
67502;SHT30;54349;52.528;19.760;2023-10-09T15:44:42;23.28;43.31
67502;SHT30;54349;52.528;19.760;2023-10-09T15:47:18;23.26;43.30
67502;SHT30;54349;52.528;19.760;2023-10-09T15:49:51;23.25;43.29
67502;SHT30;54349;52.528;19.760;2023-10-09T15:52:23;23.25;43.28
67502;SHT30;54349;52.528;19.760;2023-10-09T15:54:54;23.24;43.35
67502;SHT30;54349;52.528;19.760;2023-10-09T15:57:24;23.23;43.42
67502;SHT30;54349;52.528;19.760;2023-10-09T15:59:53;23.24;43.40
67502;SHT30;54349;52.528;19.760;2023-10-09T16:02:23;23.23;43.35
67502;SHT30;54349;52.528;19.760;2023-10-09T16:04:54;23.21;43.37
67502;SHT30;54349;52.528;19.760;2023-10-09T16:07:24;23.20;43.36
67502;SHT30;54349;52.528;19.760;2023-10-09T16:09:55;23.18;43.34
67502;SHT30;54349;52.528;19.760;2023-10-09T16:12:26;23.17;43.32
67502;SHT30;54349;52.528;19.760;2023-10-09T16:15:00;23.14;43.30
67502;SHT30;54349;52.528;19.760;2023-10-09T16:17:30;23.13;43.37
67502;SHT30;54349;52.528;19.760;2023-10-09T16:20:03;23.11;43.38
67502;SHT30;54349;52.528;19.760;2023-10-09T16:22:42;23.10;43.40
67502;SHT30;54349;52.528;19.760;2023-10-09T16:25:15;23.09;43.37
67502;SHT30;54349;52.528;19.760;2023-10-09T16:27:45;23.07;43.35
67502;SHT30;54349;52.528;19.760;2023-10-09T16:30:15;23.04;43.34
67502;SHT30;54349;52.528;19.760;2023-10-09T16:32:50;23.03;43.30
67502;SHT30;54349;52.528;19.760;2023-10-09T16:35:20;23.00;43.33